createdAt,value
2019-02-27T00:00:06.091Z,23.05
2019-02-27T00:02:35.088Z,23.35
2019-02-27T00:05:05.976Z,22.40
2019-02-27T00:07:34.822Z,22.37
2019-02-27T00:10:06.182Z,22.37
2019-02-27T00:12:34.790Z,25.37
2019-02-27T00:15:05.090Z,26.25
2019-02-27T00:17:34.657Z,22.75
2019-02-27T00:20:05.047Z,24.85
2019-02-27T00:22:34.181Z,22.62
2019-02-27T00:25:04.037Z,26.17
2019-02-27T00:27:33.110Z,22.95
2019-02-27T00:30:05.053Z,24.15
2019-02-27T00:32:32.787Z,25.02
2019-02-27T00:35:06.332Z,24.18
2019-02-27T00:37:32.358Z,23.65
2019-02-27T00:40:05.426Z,22.52
2019-02-27T00:42:33.719Z,22.10
2019-02-27T00:45:06.843Z,21.87
2019-02-27T00:47:33.125Z,24.23
2019-02-27T00:50:05.792Z,26.70
2019-02-27T00:52:32.605Z,22.50
2019-02-27T00:55:04.302Z,23.05
2019-02-27T00:57:32.141Z,23.30
2019-02-27T01:00:01.106Z,23.70
2019-02-27T01:02:30.062Z,25.15
2019-02-27T01:04:59.579Z,24.12
2019-02-27T01:07:28.594Z,22.82
2019-02-27T01:09:57.508Z,21.75
2019-02-27T01:12:26.473Z,21.52
2019-02-27T01:14:55.485Z,24.85
2019-02-27T01:17:24.474Z,23.55
2019-02-27T01:19:53.351Z,21.42
2019-02-27T01:22:22.275Z,24.40
2019-02-27T01:24:51.192Z,24.35
2019-02-27T01:27:20.116Z,25.70
2019-02-27T01:29:51.136Z,24.00
2019-02-27T01:32:19.593Z,25.62
2019-02-27T01:34:48.522Z,21.62
2019-02-27T01:37:17.358Z,23.25
2019-02-27T01:39:46.300Z,24.00
2019-02-27T01:42:15.134Z,22.42
2019-02-27T01:44:46.523Z,23.80
2019-02-27T01:47:14.850Z,22.48
2019-02-27T01:49:43.719Z,21.12
2019-02-27T01:52:12.565Z,22.85
2019-02-27T01:54:41.489Z,22.77
2019-02-27T01:57:10.323Z,23.95
2019-02-27T01:59:39.186Z,25.82
2019-02-27T02:02:08.122Z,20.62
2019-02-27T02:04:37.096Z,22.67
2019-02-27T02:07:06.660Z,21.95
2019-02-27T02:09:37.679Z,20.97
2019-02-27T02:12:12.961Z,22.05
2019-02-27T02:15:12.369Z,21.82
2019-02-27T02:18:13.966Z,21.33
2019-02-27T02:21:14.146Z,19.35
2019-02-27T02:24:45.459Z,22.50
2019-02-27T02:27:41.555Z,22.75
2019-02-27T02:30:42.660Z,24.45
2019-02-27T02:33:48.634Z,20.12
2019-02-27T02:37:01.443Z,20.90
2019-02-27T02:39:54.190Z,19.48
2019-02-27T02:43:03.151Z,23.90
2019-02-27T02:46:13.036Z,19.95
2019-02-27T02:48:58.348Z,22.60
2019-02-27T03:07:13.350Z,22.98
2019-02-27T03:10:16.259Z,22.17
2019-02-27T03:13:20.651Z,21.10
2019-02-27T03:16:11.928Z,23.27
2019-02-27T03:19:15.483Z,19.65
2019-02-27T03:22:03.616Z,21.75
2019-02-27T03:25:05.769Z,20.70
2019-02-27T03:28:04.449Z,26.60
2019-02-27T03:31:11.026Z,20.88
2019-02-27T03:34:23.071Z,20.00
2019-02-27T03:37:38.700Z,20.62
2019-02-27T03:40:35.757Z,20.70
2019-02-27T03:43:30.591Z,20.02
2019-02-27T03:46:19.197Z,21.97
2019-02-27T03:49:03.017Z,20.75
2019-02-27T03:51:48.630Z,20.15
2019-02-27T03:54:31.787Z,21.17
2019-02-27T03:57:28.940Z,20.20
2019-02-27T04:00:42.706Z,22.27
2019-02-27T04:03:41.051Z,21.12
2019-02-27T04:06:39.387Z,23.07
2019-02-27T04:09:09.741Z,23.07
2019-02-27T04:11:41.439Z,23.65
2019-02-27T04:14:32.370Z,22.52
2019-02-27T04:17:05.378Z,24.80
2019-02-27T04:19:38.628Z,25.55
2019-02-27T04:22:02.817Z,24.10
2019-02-27T04:24:31.709Z,24.60
2019-02-27T04:27:00.625Z,24.35
2019-02-27T04:29:29.449Z,23.00
2019-02-27T04:31:58.443Z,24.40
2019-02-27T04:34:27.342Z,23.05
2019-02-27T04:36:56.296Z,30.50
2019-02-27T04:39:25.125Z,25.68
2019-02-27T04:41:54.061Z,24.10
2019-02-27T04:44:22.920Z,25.08
2019-02-27T04:46:54.809Z,23.65
2019-02-27T04:49:22.297Z,23.98
2019-02-27T04:51:51.179Z,23.30
2019-02-27T04:54:20.221Z,25.12
2019-02-27T04:56:49.158Z,25.88
2019-02-27T04:59:18.749Z,23.65
2019-02-27T05:01:48.209Z,26.62
2019-02-27T05:04:17.048Z,27.07
2019-02-27T05:06:47.330Z,25.50
2019-02-27T05:09:16.808Z,24.20
2019-02-27T05:11:48.262Z,24.65
2019-02-27T05:14:16.441Z,23.77
2019-02-27T05:16:47.292Z,18.95
2019-02-27T05:19:15.933Z,27.13
2019-02-27T05:21:44.793Z,22.05
2019-02-27T05:24:13.649Z,21.87
2019-02-27T05:26:42.588Z,22.98
2019-02-27T05:29:11.413Z,25.27
2019-02-27T05:31:40.256Z,24.45
2019-02-27T05:34:12.669Z,23.70
2019-02-27T05:36:39.744Z,23.73
2019-02-27T05:39:08.778Z,23.73
2019-02-27T05:41:37.620Z,24.32
2019-02-27T05:44:06.480Z,23.35
2019-02-27T05:46:35.678Z,23.52
2019-02-27T05:49:06.100Z,26.15
2019-02-27T05:51:34.945Z,25.95
2019-02-27T05:54:03.937Z,24.18
2019-02-27T05:56:32.941Z,22.60
2019-02-27T05:59:01.977Z,22.07
2019-02-27T06:01:30.797Z,20.75
2019-02-27T06:03:59.661Z,23.42
2019-02-27T06:06:28.495Z,21.87
2019-02-27T06:08:57.324Z,25.70
2019-02-27T06:11:27.113Z,24.02
2019-02-27T06:13:57.242Z,19.52
2019-02-27T06:16:26.167Z,26.40
2019-02-27T06:18:56.267Z,21.20
2019-02-27T06:21:25.911Z,20.68
2019-02-27T06:23:54.821Z,25.60
2019-02-27T06:26:23.833Z,23.00
2019-02-27T06:28:52.749Z,24.43
2019-02-27T06:31:21.621Z,28.00
2019-02-27T06:33:50.530Z,26.85
2019-02-27T06:36:19.428Z,24.77
2019-02-27T06:38:48.354Z,29.05
2019-02-27T06:41:17.298Z,27.00
2019-02-27T06:43:46.134Z,27.77
2019-02-27T06:46:17.349Z,25.68
2019-02-27T06:48:45.599Z,23.83
2019-02-27T06:51:14.458Z,22.32
2019-02-27T06:53:43.453Z,24.20
2019-02-27T06:56:12.436Z,27.60
2019-02-27T06:58:41.291Z,27.82
2019-02-27T07:01:13.117Z,28.67
2019-02-27T07:03:40.690Z,22.35
2019-02-27T07:06:09.555Z,26.73
2019-02-27T07:08:38.719Z,23.52
2019-02-27T07:11:10.835Z,24.85
2019-02-27T07:13:38.559Z,21.95
2019-02-27T07:16:07.653Z,23.22
2019-02-27T07:18:41.494Z,27.15
2019-02-27T07:21:07.464Z,25.37
2019-02-27T07:23:36.490Z,21.93
2019-02-27T07:26:05.513Z,21.95
2019-02-27T07:28:37.471Z,25.30
2019-02-27T07:31:06.403Z,24.15
2019-02-27T07:33:38.038Z,22.75
2019-02-27T07:36:06.279Z,22.70
2019-02-27T07:38:35.265Z,22.95
2019-02-27T07:41:04.277Z,23.80
2019-02-27T07:43:33.357Z,27.42
2019-02-27T07:46:02.414Z,23.55
2019-02-27T07:48:32.504Z,25.05
2019-02-27T07:51:01.448Z,26.93
2019-02-27T07:53:30.270Z,25.45
2019-02-27T07:55:59.202Z,28.10
2019-02-27T07:58:29.284Z,23.95
2019-02-27T08:00:58.974Z,24.67
2019-02-27T08:03:29.804Z,25.27
2019-02-27T08:05:59.812Z,22.45
2019-02-27T08:08:29.411Z,24.15
2019-02-27T08:10:58.322Z,22.40
2019-02-27T08:13:29.715Z,21.73
2019-02-27T08:15:58.174Z,22.93
2019-02-27T08:18:30.400Z,32.28
2019-02-27T08:20:58.154Z,31.42
2019-02-27T08:23:27.258Z,29.72
2019-02-27T08:25:56.227Z,29.00
2019-02-27T08:28:26.921Z,29.02
2019-02-27T08:30:55.917Z,24.00
2019-02-27T08:33:25.168Z,24.47
2019-02-27T08:35:54.233Z,28.12
2019-02-27T08:38:23.722Z,32.20
2019-02-27T08:40:57.563Z,21.93
2019-02-27T08:43:23.592Z,22.65
2019-02-27T08:45:52.560Z,21.87
2019-02-27T08:48:21.606Z,26.27
2019-02-27T08:50:51.824Z,20.92
2019-02-27T08:53:25.972Z,22.13
2019-02-27T08:55:52.833Z,20.75
2019-02-27T08:58:21.774Z,25.12
2019-02-27T09:00:51.844Z,21.35
2019-02-27T09:03:20.998Z,24.20
2019-02-27T09:05:51.082Z,20.25
2019-02-27T09:08:20.804Z,23.85
2019-02-27T09:10:49.750Z,27.10
2019-02-27T09:13:18.763Z,26.62
2019-02-27T09:15:47.853Z,21.97
2019-02-27T09:18:16.850Z,22.67
2019-02-27T09:20:45.842Z,23.50
2019-02-27T09:23:15.124Z,23.85
2019-02-27T09:25:44.478Z,21.12
2019-02-27T09:28:13.497Z,22.13
2019-02-27T09:30:42.541Z,24.30
2019-02-27T09:33:11.576Z,21.73
2019-02-27T09:35:40.652Z,19.57
2019-02-27T09:38:09.584Z,21.40
2019-02-27T09:40:39.663Z,22.32
2019-02-27T09:43:08.957Z,22.30
2019-02-27T09:45:37.963Z,24.45
2019-02-27T09:48:07.045Z,22.13
2019-02-27T09:50:41.013Z,22.90
2019-02-27T09:53:10.143Z,25.90
2019-02-27T09:55:39.163Z,23.10
2019-02-27T09:58:11.012Z,22.45
2019-02-27T10:00:47.308Z,28.42
2019-02-27T10:03:20.229Z,20.23
2019-02-27T10:05:47.774Z,23.35
2019-02-27T10:08:17.000Z,22.13
2019-02-27T10:10:46.206Z,26.20
2019-02-27T10:13:15.302Z,22.02
2019-02-27T10:15:44.499Z,22.45
2019-02-27T10:18:18.376Z,22.60
2019-02-27T10:20:44.396Z,18.37
2019-02-27T10:23:13.616Z,18.77
2019-02-27T10:25:43.592Z,20.80
2019-02-27T10:28:13.459Z,19.07
2019-02-27T10:30:43.453Z,23.25
2019-02-27T10:33:12.678Z,20.50
2019-02-27T10:35:41.872Z,19.42
2019-02-27T10:38:10.955Z,22.37
2019-02-27T10:40:39.970Z,18.90
2019-02-27T10:43:09.050Z,17.37
2019-02-27T10:45:38.172Z,21.12
2019-02-27T10:48:07.232Z,17.27
2019-02-27T10:50:36.269Z,18.57
2019-02-27T10:53:05.345Z,19.27
2019-02-27T10:55:34.262Z,20.77
2019-02-27T10:58:03.344Z,17.30
2019-02-27T11:00:34.832Z,18.80
2019-02-27T11:03:03.322Z,19.73
2019-02-27T11:05:32.945Z,18.17
2019-02-27T11:08:02.279Z,17.82
2019-02-27T11:10:31.208Z,21.40
2019-02-27T11:13:03.003Z,18.20
2019-02-27T11:15:30.947Z,18.07
2019-02-27T11:18:04.235Z,15.75
2019-02-27T11:20:30.801Z,19.70
2019-02-27T11:22:59.972Z,20.80
2019-02-27T11:25:29.139Z,18.10
2019-02-27T11:27:58.505Z,17.95
2019-02-27T11:30:30.422Z,17.37
2019-02-27T11:32:59.465Z,17.32
2019-02-27T11:35:28.524Z,19.17
2019-02-27T11:37:57.400Z,17.30
2019-02-27T11:40:26.294Z,17.10
2019-02-27T11:42:55.274Z,18.90
2019-02-27T11:45:24.869Z,16.73
2019-02-27T11:47:53.975Z,20.80
2019-02-27T11:50:23.016Z,20.23
2019-02-27T11:52:52.196Z,17.80
2019-02-27T11:55:21.190Z,18.60
2019-02-27T11:57:50.421Z,19.90
2019-02-27T12:00:26.364Z,20.45
2019-02-27T12:02:55.432Z,21.93
2019-02-27T12:05:24.881Z,18.50
2019-02-27T12:07:54.156Z,19.05
2019-02-27T12:10:24.847Z,18.98
2019-02-27T12:12:59.730Z,17.12
2019-02-27T12:15:27.152Z,20.68
2019-02-27T12:17:59.714Z,17.27
2019-02-27T12:20:26.867Z,18.62
2019-02-27T12:22:55.950Z,19.20
2019-02-27T12:25:29.094Z,20.55
2019-02-27T12:27:56.718Z,18.60
2019-02-27T12:30:26.266Z,20.70
2019-02-27T12:32:56.706Z,20.30
2019-02-27T12:35:27.877Z,18.40
2019-02-27T12:37:56.953Z,18.07
2019-02-27T12:40:25.987Z,21.82
2019-02-27T12:42:55.417Z,19.62
2019-02-27T12:45:25.780Z,19.17
2019-02-27T12:47:55.473Z,18.90
2019-02-27T12:50:27.042Z,21.05
2019-02-27T12:52:55.369Z,18.92
2019-02-27T12:55:24.787Z,19.17
2019-02-27T12:57:53.777Z,19.40
2019-02-27T13:00:25.212Z,22.42
2019-02-27T13:02:54.223Z,19.70
2019-02-27T13:05:26.471Z,21.80
2019-02-27T13:07:54.118Z,21.17
2019-02-27T13:10:23.382Z,19.15
2019-02-27T13:12:52.650Z,18.57
2019-02-27T13:15:22.612Z,22.25
2019-02-27T13:17:56.169Z,21.45
2019-02-27T13:20:24.362Z,18.98
2019-02-27T13:22:53.503Z,19.15
2019-02-27T13:25:24.145Z,20.62
2019-02-27T13:27:53.261Z,23.45
2019-02-27T13:30:22.491Z,21.50
2019-02-27T13:32:51.459Z,22.32
2019-02-27T13:35:23.128Z,21.30
2019-02-27T13:37:51.278Z,20.68
2019-02-27T13:40:20.511Z,19.67
2019-02-27T13:42:52.287Z,21.12
2019-02-27T13:45:22.199Z,23.67
2019-02-27T13:47:51.273Z,22.07
2019-02-27T13:50:24.449Z,20.85
2019-02-27T13:52:51.048Z,21.12
2019-02-27T13:55:20.412Z,20.62
2019-02-27T13:57:49.496Z,23.38
2019-02-27T14:00:21.586Z,22.48
2019-02-27T14:02:50.853Z,23.15
2019-02-27T14:05:19.853Z,23.52
2019-02-27T14:07:48.882Z,21.82
2019-02-27T14:10:20.499Z,21.02
2019-02-27T14:12:48.783Z,25.37
2019-02-27T14:15:26.935Z,23.95
2019-02-27T14:17:52.758Z,24.98
2019-02-27T14:20:21.916Z,25.95
2019-02-27T14:22:51.390Z,23.55
2019-02-27T14:25:22.055Z,22.95
2019-02-27T14:27:51.274Z,22.20
2019-02-27T14:30:25.476Z,22.73
2019-02-27T14:32:56.565Z,25.85
2019-02-27T14:35:25.908Z,24.77
2019-02-27T14:37:54.943Z,25.85
2019-02-27T14:40:24.180Z,26.65
2019-02-27T14:42:54.853Z,24.55
2019-02-27T14:45:26.749Z,25.72
2019-02-27T14:47:55.761Z,24.12
2019-02-27T14:50:25.298Z,23.87
2019-02-27T14:52:54.266Z,26.33
2019-02-27T14:55:23.316Z,27.05
2019-02-27T14:57:52.351Z,31.77
2019-02-27T15:00:24.523Z,29.85
2019-02-27T15:02:55.620Z,30.43
2019-02-27T15:05:24.535Z,28.92
2019-02-27T15:07:54.866Z,29.45
2019-02-27T15:10:24.267Z,30.45
2019-02-27T15:12:54.990Z,27.32
2019-02-27T15:15:28.412Z,26.25
2019-02-27T15:17:57.482Z,27.00
2019-02-27T15:20:26.948Z,27.73
2019-02-27T15:22:56.157Z,27.07
2019-02-27T15:25:27.327Z,27.90
2019-02-27T15:27:58.980Z,25.50
2019-02-27T15:30:27.596Z,26.77
2019-02-27T15:32:56.584Z,24.32
2019-02-27T15:35:25.700Z,22.17
2019-02-27T15:37:54.748Z,24.32
2019-02-27T15:40:28.365Z,21.62
2019-02-27T15:42:55.089Z,23.52
2019-02-27T15:45:24.151Z,23.52
2019-02-27T15:47:53.334Z,25.40
2019-02-27T15:50:23.597Z,23.05
2019-02-27T15:52:52.788Z,23.07
2019-02-27T15:55:21.701Z,24.18
2019-02-27T15:57:53.678Z,25.50
2019-02-27T16:00:22.554Z,25.48
2019-02-27T16:02:51.706Z,23.10
2019-02-27T16:05:20.710Z,24.60
2019-02-27T16:07:49.930Z,26.07
2019-02-27T16:10:20.338Z,23.22
2019-02-27T16:12:49.404Z,23.38
2019-02-27T16:15:18.743Z,24.55
2019-02-27T16:17:47.928Z,24.10
2019-02-27T16:20:17.770Z,25.65
2019-02-27T16:22:46.819Z,21.90
2019-02-27T16:25:19.964Z,25.48
2019-02-27T16:27:48.330Z,23.95
2019-02-27T16:30:22.306Z,23.15
2019-02-27T16:32:51.439Z,21.60
2019-02-27T16:35:20.589Z,27.48
2019-02-27T16:37:49.774Z,23.07
2019-02-27T16:40:19.117Z,27.10
2019-02-27T16:42:48.179Z,29.67
2019-02-27T16:45:18.799Z,25.97
2019-02-27T16:47:47.882Z,25.77
2019-02-27T16:50:23.955Z,24.02
2019-02-27T16:52:49.358Z,25.85
2019-02-27T16:55:19.309Z,24.02
2019-02-27T16:57:51.288Z,29.57
2019-02-27T17:00:25.347Z,26.00
2019-02-27T17:02:54.374Z,25.55
2019-02-27T17:05:23.333Z,26.25
2019-02-27T17:07:53.216Z,24.12
2019-02-27T17:10:24.500Z,27.17
2019-02-27T17:12:56.539Z,26.85
2019-02-27T17:15:25.555Z,26.80
2019-02-27T17:17:54.601Z,28.27
2019-02-27T17:20:24.143Z,25.40
2019-02-27T17:22:53.262Z,26.00
2019-02-27T17:25:22.413Z,28.32
2019-02-27T17:27:53.487Z,30.35
2019-02-27T17:30:24.444Z,31.45
2019-02-27T17:32:53.517Z,30.77
2019-02-27T17:35:23.691Z,26.75
2019-02-27T17:37:53.263Z,29.05
2019-02-27T17:40:22.274Z,31.00
2019-02-27T17:42:53.519Z,29.85
2019-02-27T17:45:22.251Z,30.90
2019-02-27T17:47:51.233Z,33.53
2019-02-27T17:50:20.490Z,30.57
2019-02-27T17:52:49.736Z,31.97
2019-02-27T17:55:19.129Z,38.02
2019-02-27T17:57:48.283Z,36.45
2019-02-27T18:00:21.635Z,38.78
2019-02-27T18:02:50.806Z,39.50
2019-02-27T18:05:22.279Z,42.27
2019-02-27T18:07:50.631Z,45.20
2019-02-27T18:10:19.843Z,54.65
2019-02-27T18:12:48.930Z,44.15
2019-02-27T18:15:20.451Z,53.38
2019-02-27T18:17:49.018Z,54.73
2019-02-27T18:20:17.970Z,55.40
2019-02-27T18:22:49.542Z,42.73
2019-02-27T18:25:18.146Z,37.00
2019-02-27T18:27:48.029Z,35.98
2019-02-27T18:30:18.796Z,35.73
2019-02-27T18:32:48.096Z,37.28
2019-02-27T18:35:17.354Z,35.30
2019-02-27T18:37:46.346Z,38.23
2019-02-27T18:40:15.650Z,35.43
2019-02-27T18:42:44.796Z,41.08
2019-02-27T18:45:16.079Z,38.53
2019-02-27T18:47:45.269Z,38.85
2019-02-27T18:50:14.977Z,34.08
2019-02-27T18:52:44.403Z,37.20
2019-02-27T18:55:13.699Z,38.28
2019-02-27T18:57:45.671Z,41.13
2019-02-27T19:00:20.238Z,37.58
2019-02-27T19:02:52.013Z,39.42
2019-02-27T19:05:20.600Z,37.53
2019-02-27T19:07:53.889Z,40.50
2019-02-27T19:10:20.404Z,39.05
2019-02-27T19:12:49.461Z,37.13
2019-02-27T19:15:19.429Z,38.45
2019-02-27T19:17:48.642Z,41.95
2019-02-27T19:20:23.618Z,42.80
2019-02-27T19:22:50.758Z,38.38
2019-02-27T19:25:19.806Z,38.28
2019-02-27T19:27:49.858Z,37.67
2019-02-27T19:30:19.720Z,40.67
2019-02-27T19:32:49.235Z,42.85
2019-02-27T19:35:21.005Z,39.85
2019-02-27T19:37:49.034Z,42.00
2019-02-27T19:40:19.210Z,43.15
2019-02-27T19:42:52.919Z,40.75
2019-02-27T19:45:21.937Z,40.85
2019-02-27T19:47:54.694Z,42.78
2019-02-27T19:50:21.831Z,37.53
2019-02-27T19:52:50.832Z,40.83
2019-02-27T19:55:19.957Z,42.20
2019-02-27T19:57:49.001Z,40.38
2019-02-27T20:00:19.747Z,39.20
2019-02-27T20:02:48.965Z,45.65
2019-02-27T20:05:19.112Z,40.20
2019-02-27T20:07:50.446Z,39.40
2019-02-27T20:10:19.685Z,41.45
2019-02-27T20:12:52.909Z,38.30
2019-02-27T20:15:19.557Z,44.08
2019-02-27T20:17:49.026Z,41.00
2019-02-27T20:20:19.566Z,44.95
2019-02-27T20:22:50.388Z,41.15
2019-02-27T20:25:20.107Z,47.43
2019-02-27T20:27:49.410Z,40.75
2019-02-27T20:30:19.028Z,46.00
2019-02-27T20:32:48.201Z,47.45
2019-02-27T20:35:20.327Z,40.12
2019-02-27T20:37:47.974Z,42.43
2019-02-27T20:40:17.128Z,45.00
2019-02-27T20:42:49.985Z,42.88
2019-02-27T20:45:17.327Z,47.30
2019-02-27T20:47:46.426Z,49.42
2019-02-27T20:50:23.496Z,46.35
2019-02-27T20:52:51.956Z,47.23
2019-02-27T20:55:20.891Z,45.67
2019-02-27T20:57:49.801Z,49.00
2019-02-27T21:00:18.880Z,51.10
2019-02-27T21:02:50.382Z,53.92
2019-02-27T21:05:18.617Z,50.78
2019-02-27T21:07:47.662Z,46.70
2019-02-27T21:10:20.947Z,46.88
2019-02-27T21:12:53.851Z,48.40
2019-02-27T21:15:19.536Z,44.85
2019-02-27T21:17:48.486Z,50.83
2019-02-27T21:20:17.566Z,46.10
2019-02-27T21:22:46.601Z,43.42
2019-02-27T21:25:15.746Z,42.27
2019-02-27T21:27:44.813Z,41.95
2019-02-27T21:30:18.047Z,46.23
2019-02-27T21:32:46.084Z,42.62
2019-02-27T21:35:15.061Z,42.58
2019-02-27T21:37:46.805Z,45.75
2019-02-27T21:40:15.881Z,44.95
2019-02-27T21:42:44.974Z,41.92
2019-02-27T21:45:15.320Z,44.55
2019-02-27T21:47:44.325Z,44.18
2019-02-27T21:50:15.050Z,44.25
2019-02-27T21:52:43.952Z,41.42
2019-02-27T21:55:13.766Z,47.17
2019-02-27T21:57:42.992Z,47.50
2019-02-27T22:00:16.056Z,43.42
2019-02-27T22:02:45.056Z,47.55
2019-02-27T22:05:18.656Z,46.80
2019-02-27T22:07:44.900Z,43.95
2019-02-27T22:10:19.164Z,46.28
2019-02-27T22:12:44.816Z,44.08
2019-02-27T22:15:21.826Z,46.73
2019-02-27T22:17:47.413Z,45.30
2019-02-27T22:20:16.354Z,45.65
2019-02-27T22:22:45.378Z,42.83
2019-02-27T22:25:14.396Z,44.77
2019-02-27T22:27:45.947Z,42.43
2019-02-27T22:30:15.392Z,48.13
2019-02-27T22:32:47.622Z,42.78
2019-02-27T22:35:15.444Z,42.98
2019-02-27T22:37:44.441Z,44.73
2019-02-27T22:40:14.851Z,43.08
2019-02-27T22:42:45.491Z,44.42
2019-02-27T22:45:15.334Z,43.58
2019-02-27T22:47:44.333Z,48.02
2019-02-27T22:50:14.581Z,45.65
2019-02-27T22:52:43.513Z,40.85
2019-02-27T22:55:12.855Z,43.58
2019-02-27T22:57:41.801Z,43.70
2019-02-27T23:00:56.723Z,48.23
2019-02-27T23:03:26.317Z,46.18
2019-02-27T23:05:55.336Z,43.92
2019-02-27T23:08:24.317Z,44.93
2019-02-27T23:10:53.273Z,44.33
2019-02-27T23:13:22.436Z,46.98
2019-02-27T23:15:51.938Z,42.70
2019-02-27T23:18:21.092Z,43.17
2019-02-27T23:20:52.472Z,41.40
2019-02-27T23:23:21.485Z,45.90
2019-02-27T23:25:50.424Z,47.65
2019-02-27T23:28:19.380Z,44.42
2019-02-27T23:30:48.402Z,42.03
2019-02-27T23:33:17.485Z,45.17
2019-02-27T23:35:47.340Z,48.05
2019-02-27T23:38:17.226Z,47.13
2019-02-27T23:40:48.984Z,43.13
2019-02-27T23:43:16.846Z,49.33
2019-02-27T23:45:45.829Z,45.35
2019-02-27T23:48:14.747Z,47.80
2019-02-27T23:50:43.791Z,46.83
2019-02-27T23:53:12.784Z,46.70
2019-02-27T23:55:44.600Z,50.88
2019-02-27T23:58:12.206Z,43.70
